Terminal Aerodrome Forecast
Issued by NWS

Home | Current Version | Previous Version | Text Only | Print | Product List | Glossary On
Versions: 1 2 3 4 5 6 7 8 9 10 11 12 13 14
000
FTAK31 PAJN 251400 AAA
TAFAPG
TAF AMD
PAPG 251400Z 2514/2612 00000KT 2SM -SN OVC015
     FM252100 05012KT P6SM SCT015 BKN035 BKN050
     FM260000 12012KT P6SM SCT035 SCT100
      AMD LTD TO CLD VIS AND WIND 2514/2515=

USA.gov is the U.S. government's official web portal to all federal, state and local government web resources and services.